Time;durP1;ratioP1;P1;durP2;ratioP2;P2;SDS_P1;SDS_P2;PMS_P1;PMS_P2;Temp;Humidity;BMP_temperature;BMP_pressure;BME280_temperature;BME280_humidity;BME280_pressure;Samples;Min_cycle;Max_cycle;Signal;HPM_P1;HPM_P2
2021/03/05 00:00:08;;;;;;;0.25;0.20;;;;;;;21.07;47.61;101778.50;5053923;28;20024;-67
2021/03/05 00:02:33;;;;;;;0.25;0.10;;;;;;;20.99;47.54;101771.13;5054114;28;20021;-67
2021/03/05 00:04:59;;;;;;;0.55;0.20;;;;;;;21.02;47.76;101773.56;5071935;28;20080;-66
2021/03/05 00:07:24;;;;;;;0.20;0.10;;;;;;;21.08;47.55;101788.44;5072232;28;20027;-67
2021/03/05 00:09:49;;;;;;;0.22;0.20;;;;;;;21.11;47.18;101785.34;5072134;28;20455;-67
2021/03/05 00:12:15;;;;;;;0.17;0.13;;;;;;;21.12;46.96;101787.06;5075788;28;20036;-67
2021/03/05 00:14:40;;;;;;;0.47;0.25;;;;;;;21.11;46.95;101788.09;5076329;28;20033;-67
2021/03/05 00:17:05;;;;;;;1.08;0.50;;;;;;;21.11;46.82;101799.03;5075984;28;20020;-67
2021/03/05 00:19:31;;;;;;;0.25;0.10;;;;;;;21.10;46.69;101797.31;5075836;28;20052;-66
2021/03/05 00:21:56;;;;;;;0.70;0.30;;;;;;;21.11;46.47;101801.75;5075643;28;20047;-67
2021/03/05 00:24:21;;;;;;;0.45;0.20;;;;;;;21.10;46.40;101802.78;5075105;28;20074;-67
2021/03/05 00:26:47;;;;;;;0.20;0.10;;;;;;;21.09;46.15;101801.06;5068898;28;20016;-66
2021/03/05 00:29:12;;;;;;;0.10;0.10;;;;;;;21.11;46.44;101789.97;5055663;28;20033;-68
2021/03/05 00:31:37;;;;;;;0.52;0.28;;;;;;;21.12;45.96;101789.78;5037947;28;20021;-67
2021/03/05 00:34:03;;;;;;;0.10;0.10;;;;;;;21.10;46.10;101786.38;5055450;28;20028;-67
2021/03/05 00:36:28;;;;;;;0.20;0.20;;;;;;;21.09;46.08;101778.34;5055611;28;20021;-67
2021/03/05 00:38:53;;;;;;;1.55;0.10;;;;;;;21.16;46.19;101798.50;5055250;28;20033;-66
2021/03/05 00:41:19;;;;;;;0.20;0.10;;;;;;;21.16;46.23;101796.63;5055414;28;20047;-67
2021/03/05 00:43:44;;;;;;;0.52;0.20;;;;;;;21.16;46.21;101793.91;5055356;28;20047;-66
2021/03/05 00:46:09;;;;;;;0.88;0.10;;;;;;;21.11;46.20;101777.16;5055299;28;20021;-67
2021/03/05 00:48:35;;;;;;;0.20;0.10;;;;;;;21.17;45.96;101792.91;5055471;28;20066;-67
2021/03/05 00:51:00;;;;;;;1.70;0.20;;;;;;;21.18;46.16;101800.09;5054955;28;20094;-67
2021/03/05 00:53:25;;;;;;;0.10;0.10;;;;;;;21.20;46.48;101798.03;5057917;28;20019;-67
2021/03/05 00:55:51;;;;;;;0.60;0.10;;;;;;;21.21;47.05;101799.75;5074978;28;20039;-66
2021/03/05 00:58:16;;;;;;;0.17;0.17;;;;;;;21.11;47.07;101800.91;5075150;28;20345;-67
2021/03/05 01:00:41;;;;;;;0.77;0.10;;;;;;;21.09;47.61;101801.06;5074898;28;20024;-67
2021/03/05 01:03:07;;;;;;;0.32;0.20;;;;;;;21.06;47.47;101801.41;5074502;28;20028;-67
2021/03/05 01:05:32;;;;;;;0.47;0.10;;;;;;;21.01;47.35;101780.03;5074707;28;20056;-66
2021/03/05 01:07:59;;;;;;;0.22;0.10;;;;;;;20.96;47.22;101795.22;5074828;28;20483;-66
2021/03/05 01:10:24;;;;;;;0.50;0.25;;;;;;;20.90;46.02;101795.88;5074909;28;20051;-66
2021/03/05 01:12:49;;;;;;;0.40;0.20;;;;;;;20.85;45.54;101792.81;5074696;28;20028;-66
2021/03/05 01:15:15;;;;;;;0.50;0.10;;;;;;;20.83;45.12;101801.16;5074831;28;20459;-67
2021/03/05 01:17:40;;;;;;;0.35;0.15;;;;;;;20.80;45.51;101795.16;5074819;28;20020;-66
2021/03/05 01:20:12;;;;;;;0.43;0.10;;;;;;;20.76;46.41;101789.16;5074663;28;20493;-67
2021/03/05 01:22:37;;;;;;;0.85;0.30;;;;;;;20.76;45.73;101793.78;5073495;28;20510;-67
2021/03/05 01:25:06;;;;;;;0.32;0.13;;;;;;;20.76;46.60;101791.03;5057707;28;20037;-67
2021/03/05 01:27:31;;;;;;;0.40;0.40;;;;;;;20.73;45.87;101790.34;5054648;28;20032;-67
2021/03/05 01:29:57;;;;;;;0.20;0.10;;;;;;;20.70;46.90;101793.41;5054375;28;20021;-67
2021/03/05 01:32:22;;;;;;;0.10;0.10;;;;;;;20.73;46.81;101793.09;5054441;28;20024;-67
2021/03/05 01:34:47;;;;;;;0.22;0.10;;;;;;;20.76;46.99;101793.78;5054342;28;20033;-66
2021/03/05 01:37:12;;;;;;;0.25;0.10;;;;;;;20.72;46.55;101788.66;5054336;28;20442;-67
2021/03/05 01:39:38;;;;;;;0.20;0.10;;;;;;;20.73;47.00;101795.81;5054487;28;20025;-67
2021/03/05 01:42:03;;;;;;;0.10;0.10;;;;;;;20.71;46.57;101786.94;5054040;28;20030;-67
2021/03/05 01:44:28;;;;;;;0.82;0.05;;;;;;;20.72;46.98;101785.91;5054303;28;20033;-68
2021/03/05 01:46:54;;;;;;;0.52;0.10;;;;;;;20.72;46.48;101782.31;5053924;28;20483;-67
2021/03/05 01:49:19;;;;;;;0.25;0.05;;;;;;;20.71;47.04;101778.75;5054331;28;20114;-67
2021/03/05 01:51:44;;;;;;;0.20;0.10;;;;;;;20.70;46.64;101777.03;5053979;28;20032;-67
2021/03/05 01:54:10;;;;;;;0.50;0.13;;;;;;;20.63;46.50;101778.69;5062609;28;20476;-66
2021/03/05 01:56:41;;;;;;;0.22;0.15;;;;;;;20.58;46.11;101775.59;5074143;28;20024;-67
2021/03/05 01:59:09;;;;;;;1.13;0.30;;;;;;;20.62;46.61;101776.97;5073856;28;20054;-67
2021/03/05 02:01:35;;;;;;;0.30;0.10;;;;;;;20.58;46.13;101781.06;5073968;28;20016;-67
2021/03/05 02:04:03;;;;;;;0.08;0.03;;;;;;;20.59;45.63;101788.22;5055754;28;20025;-67
2021/03/05 02:06:29;;;;;;;0.00;0.00;;;;;;;20.65;45.30;101786.72;5074189;28;20058;-67
2021/03/05 02:08:54;;;;;;;0.10;0.10;;;;;;;20.65;46.29;101794.91;5073528;28;20099;-66
2021/03/05 02:11:21;;;;;;;0.00;0.00;;;;;;;20.60;46.13;101789.94;5073785;28;20067;-67
2021/03/05 02:13:47;;;;;;;0.10;0.10;;;;;;;20.74;46.22;101802.16;5073553;28;20464;-67
2021/03/05 02:16:37;;;;;;;0.30;0.20;;;;;;;20.76;46.51;101810.16;5073894;28;20049;-67
2021/03/05 02:19:38;;;;;;;0.20;0.17;;;;;;;20.82;45.97;101798.56;5073355;28;20025;-67
2021/03/05 02:22:39;;;;;;;0.17;0.05;;;;;;;20.82;45.95;101798.56;5073380;28;20044;-68
2021/03/05 02:25:40;;;;;;;0.40;0.08;;;;;;;20.80;46.36;101789.69;5056852;28;20047;-67
2021/03/05 02:28:11;;;;;;;0.05;0.00;;;;;;;20.80;47.07;101792.41;5071589;28;20029;-67
2021/03/05 02:31:12;;;;;;;0.63;0.10;;;;;;;20.81;46.22;101788.66;5073461;28;20107;-67
2021/03/05 02:34:02;;;;;;;0.17;0.10;;;;;;;20.82;46.77;101793.09;5073020;28;20040;-67
2021/03/05 02:36:34;;;;;;;0.10;0.00;;;;;;;20.83;47.10;101800.31;5073230;28;20036;-67
2021/03/05 02:39:06;;;;;;;0.30;0.17;;;;;;;20.83;46.71;101790.25;5072956;28;20464;-67
2021/03/05 02:41:36;;;;;;;0.00;0.00;;;;;;;20.83;46.33;101789.38;5073390;28;20032;-67
2021/03/05 02:44:02;;;;;;;0.22;0.10;;;;;;;20.80;46.50;101796.00;5072907;28;20492;-67
2021/03/05 02:46:30;;;;;;;0.10;0.10;;;;;;;20.82;46.96;101795.84;5072942;28;20479;-67
2021/03/05 02:49:00;;;;;;;0.45;0.10;;;;;;;20.83;46.33;101789.38;5072757;28;20481;-67
2021/03/05 02:51:30;;;;;;;0.85;0.10;;;;;;;20.81;45.96;101786.78;5072752;28;20073;-68
2021/03/05 02:53:57;;;;;;;0.38;0.13;;;;;;;20.79;46.26;101783.38;5072341;28;20150;-67
2021/03/05 02:56:25;;;;;;;0.80;0.20;;;;;;;20.81;47.40;101791.41;5054947;28;20020;-68
2021/03/05 02:58:52;;;;;;;0.28;0.10;;;;;;;20.85;46.97;101798.28;5072749;28;20052;-68
2021/03/05 03:01:21;;;;;;;0.10;0.00;;;;;;;20.88;47.36;101797.94;5072913;28;20027;-67
2021/03/05 03:03:47;;;;;;;0.17;0.08;;;;;;;20.81;47.89;101796.88;5072756;28;20540;-67
2021/03/05 03:06:15;;;;;;;0.80;0.20;;;;;;;20.83;47.86;101794.84;5072706;28;20414;-67
2021/03/05 03:08:42;;;;;;;0.52;0.10;;;;;;;20.82;48.39;101801.31;5072623;28;20495;-66
2021/03/05 03:11:08;;;;;;;0.05;0.05;;;;;;;20.84;48.63;101812.97;5072473;28;20206;-66
2021/03/05 03:13:34;;;;;;;0.90;0.10;;;;;;;20.77;47.82;101806.41;5072816;28;20035;-67
2021/03/05 03:16:01;;;;;;;0.32;0.10;;;;;;;20.73;46.75;101806.75;5072476;28;20028;-67
2021/03/05 03:18:27;;;;;;;0.13;0.00;;;;;;;20.65;46.78;101803.97;5072506;28;20032;-67
2021/03/05 03:20:55;;;;;;;0.10;0.00;;;;;;;20.64;46.64;101812.31;5072454;28;20020;-67
2021/03/05 03:23:21;;;;;;;0.45;0.20;;;;;;;20.58;46.24;101802.91;5071918;28;20426;-67
2021/03/05 03:25:46;;;;;;;0.03;0.03;;;;;;;20.55;45.84;101805.97;5046580;28;20029;-67
2021/03/05 03:28:12;;;;;;;0.10;0.10;;;;;;;20.53;46.25;101816.22;5034516;28;20017;-67
2021/03/05 03:30:37;;;;;;;0.00;0.00;;;;;;;20.51;45.61;101811.94;5052639;28;20025;-67
2021/03/05 03:33:03;;;;;;;0.45;0.10;;;;;;;20.52;45.40;101821.84;5052097;28;20350;-67
2021/03/05 03:35:28;;;;;;;1.30;0.10;;;;;;;20.50;45.76;101816.56;5063137;28;20024;-68
2021/03/05 03:37:56;;;;;;;1.13;0.10;;;;;;;20.50;46.31;101802.88;5072293;28;20024;-67
2021/03/05 03:40:22;;;;;;;0.10;0.10;;;;;;;20.49;45.85;101812.09;5072366;28;20033;-67
2021/03/05 03:42:48;;;;;;;0.00;0.00;;;;;;;20.53;45.69;101804.44;5072143;28;20090;-67
2021/03/05 03:45:17;;;;;;;0.10;0.10;;;;;;;20.51;45.99;101817.41;5073181;28;20362;-67
2021/03/05 03:47:43;;;;;;;0.10;0.00;;;;;;;20.50;46.33;101826.63;5076502;28;20022;-67
2021/03/05 03:50:27;;;;;;;0.20;0.03;;;;;;;20.50;45.88;101826.63;5076351;28;20024;-67
2021/03/05 03:52:56;;;;;;;0.00;0.00;;;;;;;20.52;46.06;101819.97;5076013;28;20039;-66
2021/03/05 03:55:21;;;;;;;0.10;0.10;;;;;;;20.42;46.80;101742.75;5076552;28;20024;-66
2021/03/05 03:57:50;;;;;;;0.10;0.10;;;;;;;20.40;47.60;101744.75;5076252;28;20429;-67
2021/03/05 04:00:17;;;;;;;0.20;0.10;;;;;;;20.42;48.38;101759.13;5076459;28;20025;-67
2021/03/05 04:02:48;;;;;;;0.10;0.00;;;;;;;20.53;46.92;101854.47;5076158;28;20463;-67
2021/03/05 04:05:17;;;;;;;0.00;0.00;;;;;;;20.48;46.12;101834.94;5076165;28;20135;-67
2021/03/05 04:07:44;;;;;;;0.08;0.00;;;;;;;20.52;46.67;101830.91;5076153;28;20025;-66
2021/03/05 04:10:10;;;;;;;0.10;0.00;;;;;;;20.52;47.25;101830.91;5075986;28;20036;-67
2021/03/05 04:12:37;;;;;;;0.05;0.05;;;;;;;20.46;46.63;101837.00;5076337;28;20029;-67
2021/03/05 04:15:03;;;;;;;0.52;0.10;;;;;;;20.51;47.47;101829.19;5075720;28;20455;-66
2021/03/05 04:17:28;;;;;;;0.00;0.00;;;;;;;20.47;46.61;101833.25;5075978;28;20036;-67
2021/03/05 04:19:55;;;;;;;0.10;0.05;;;;;;;20.53;47.51;101820.81;5075457;28;20032;-67
2021/03/05 04:22:21;;;;;;;0.10;0.10;;;;;;;20.57;47.47;101824.94;5057776;28;20020;-67
2021/03/05 04:24:47;;;;;;;0.00;0.00;;;;;;;20.59;47.31;101812.81;5075023;28;20033;-67
2021/03/05 04:27:12;;;;;;;0.20;0.00;;;;;;;20.56;47.02;101804.97;5062388;28;20033;-67
2021/03/05 04:29:38;;;;;;;0.10;0.10;;;;;;;20.62;46.74;101815.22;5055832;28;20514;-67
2021/03/05 04:32:04;;;;;;;0.10;0.00;;;;;;;20.60;47.20;101813.69;5037704;28;20025;-67
2021/03/05 04:34:30;;;;;;;0.35;0.10;;;;;;;20.63;47.02;101816.94;5055665;28;20025;-67
2021/03/05 04:36:56;;;;;;;0.00;0.00;;;;;;;20.62;46.74;101812.50;5055316;28;20021;-67
2021/03/05 04:39:21;;;;;;;0.10;0.00;;;;;;;20.59;46.64;101815.56;5055589;28;20061;-66
2021/03/05 04:41:47;;;;;;;0.00;0.00;;;;;;;20.56;47.24;101825.97;5060307;28;20040;-67
2021/03/05 04:44:13;;;;;;;0.45;0.10;;;;;;;20.59;47.55;101825.63;5057397;28;20024;-67
2021/03/05 04:46:38;;;;;;;0.00;0.00;;;;;;;20.61;47.61;101829.91;5057403;28;20029;-67
2021/03/05 04:49:04;;;;;;;0.05;0.00;;;;;;;20.63;48.23;101833.31;5075125;28;20036;-67
2021/03/05 04:51:29;;;;;;;0.10;0.00;;;;;;;20.63;48.18;101838.78;5075341;28;20467;-67
2021/03/05 04:53:55;;;;;;;0.00;0.00;;;;;;;20.65;48.01;101828.56;5062813;28;20055;-67
2021/03/05 04:56:21;;;;;;;0.20;0.17;;;;;;;20.69;48.41;101821.78;5037029;28;20020;-67
2021/03/05 04:58:46;;;;;;;0.13;0.10;;;;;;;20.72;48.55;101820.59;5055078;28;20025;-67
2021/03/05 05:01:11;;;;;;;0.00;0.00;;;;;;;20.73;48.91;101817.69;5072083;28;20518;-67
2021/03/05 05:03:36;;;;;;;0.00;0.00;;;;;;;20.77;48.42;101828.28;5075149;28;20110;-67
2021/03/05 05:06:02;;;;;;;0.03;0.00;;;;;;;20.72;48.96;101826.91;5074907;28;20020;-67
2021/03/05 05:08:27;;;;;;;0.00;0.00;;;;;;;20.80;48.42;101822.47;5074974;28;20376;-66
2021/03/05 05:10:53;;;;;;;0.20;0.20;;;;;;;20.92;48.64;101837.56;5074679;28;20029;-66
2021/03/05 05:13:18;;;;;;;0.08;0.00;;;;;;;20.89;48.49;101840.63;5074928;28;20028;-67
2021/03/05 05:15:43;;;;;;;0.10;0.00;;;;;;;20.98;48.68;101845.97;5075099;28;20394;-67
2021/03/05 05:18:09;;;;;;;0.40;0.20;;;;;;;20.99;48.97;101844.94;5074681;28;20036;-67
2021/03/05 05:20:34;;;;;;;0.05;0.00;;;;;;;21.01;49.89;101836.59;5074844;28;20468;-67
2021/03/05 05:22:59;;;;;;;0.00;0.00;;;;;;;21.00;48.64;101840.34;5074099;28;20039;-67
2021/03/05 05:25:25;;;;;;;0.00;0.00;;;;;;;20.93;48.09;101834.69;5065316;28;20068;-66
2021/03/05 05:27:50;;;;;;;0.00;0.00;;;;;;;20.89;47.85;101835.19;5054461;28;20060;-67
2021/03/05 05:30:15;;;;;;;0.00;0.00;;;;;;;20.88;47.17;101830.72;5054587;28;20025;-67
2021/03/05 05:32:41;;;;;;;0.22;0.00;;;;;;;20.89;46.45;101838.75;5054480;28;20570;-66
2021/03/05 05:35:07;;;;;;;0.20;0.00;;;;;;;20.86;46.33;101838.25;5054292;28;20059;-67
2021/03/05 05:37:33;;;;;;;0.20;0.00;;;;;;;20.91;46.70;101841.34;5054720;28;20549;-67
2021/03/05 05:39:58;;;;;;;0.00;0.00;;;;;;;20.89;46.34;101844.22;5054248;28;20059;-66
2021/03/05 05:42:23;;;;;;;0.03;0.00;;;;;;;20.90;47.02;101848.69;5054121;28;20037;-67
2021/03/05 05:44:49;;;;;;;0.40;0.10;;;;;;;20.96;46.25;101844.41;5054182;28;20024;-67
2021/03/05 05:47:16;;;;;;;0.10;0.10;;;;;;;21.00;46.39;101846.69;5054228;28;20035;-67
2021/03/05 05:49:43;;;;;;;0.10;0.00;;;;;;;21.03;47.28;101845.50;5054280;28;20029;-67
2021/03/05 05:52:13;;;;;;;0.10;0.00;;;;;;;21.03;47.09;101850.97;5054240;28;20468;-67
2021/03/05 05:54:41;;;;;;;0.10;0.00;;;;;;;21.06;47.53;101853.34;5068774;28;20482;-67
2021/03/05 05:57:07;;;;;;;0.00;0.00;;;;;;;21.07;47.84;101857.81;5070361;28;20124;-67
2021/03/05 05:59:32;;;;;;;0.00;0.00;;;;;;;21.08;48.10;101848.56;5074166;28;20119;-67
2021/03/05 06:01:57;;;;;;;0.00;0.00;;;;;;;21.08;48.29;101859.50;5055900;28;20020;-67
2021/03/05 06:04:23;;;;;;;0.00;0.00;;;;;;;21.07;48.69;101852.34;5073896;28;20040;-67
2021/03/05 06:06:49;;;;;;;0.10;0.00;;;;;;;21.00;48.77;101851.28;5073772;28;20027;-67
2021/03/05 06:09:14;;;;;;;0.00;0.00;;;;;;;21.04;48.78;101860.88;5073099;28;20074;-67
2021/03/05 06:11:41;;;;;;;0.00;0.00;;;;;;;21.02;48.07;101851.97;5073743;28;20024;-67
2021/03/05 06:14:11;;;;;;;0.05;0.00;;;;;;;21.03;48.39;101861.91;5073653;28;20072;-67
2021/03/05 06:16:55;;;;;;;0.00;0.00;;;;;;;20.99;48.17;101855.03;5073789;28;20473;-67
2021/03/05 06:19:22;;;;;;;0.20;0.00;;;;;;;21.02;47.84;101871.13;5073750;28;20036;-67
2021/03/05 06:21:48;;;;;;;0.00;0.00;;;;;;;20.97;47.62;101862.53;5055600;28;20048;-67
2021/03/05 06:24:13;;;;;;;0.10;0.00;;;;;;;21.04;47.97;101869.06;5055733;28;20079;-67
2021/03/05 06:26:51;;;;;;;0.00;0.00;;;;;;;21.10;48.14;101867.53;5053626;28;20036;-67
2021/03/05 06:29:38;;;;;;;0.10;0.10;;;;;;;21.14;48.65;101875.25;5053392;28;20143;-67
2021/03/05 06:32:04;;;;;;;0.10;0.10;;;;;;;21.15;48.93;101879.69;5052904;28;20037;-68
2021/03/05 06:34:41;;;;;;;0.00;0.00;;;;;;;21.20;48.73;101887.44;5035524;28;20031;-67
2021/03/05 06:37:07;;;;;;;0.00;0.00;;;;;;;21.13;48.56;101879.00;5053141;28;20032;-67
2021/03/05 06:39:34;;;;;;;0.00;0.00;;;;;;;21.16;48.65;101894.22;5053358;28;20035;-67
2021/03/05 06:42:08;;;;;;;0.70;0.00;;;;;;;21.14;49.23;101913.53;5052924;28;20409;-67
2021/03/05 06:44:35;;;;;;;0.00;0.00;;;;;;;21.16;48.93;101900.53;5053254;28;20041;-67
2021/03/05 06:47:15;;;;;;;0.00;0.00;;;;;;;21.17;49.24;101896.81;5052819;28;20082;-67
2021/03/05 06:49:43;;;;;;;0.10;0.00;;;;;;;21.20;49.34;101901.97;5053140;28;20056;-67
2021/03/05 06:52:10;;;;;;;0.00;0.00;;;;;;;21.20;49.89;101901.97;5068842;28;20033;-67
2021/03/05 06:54:37;;;;;;;0.00;0.00;;;;;;;21.19;49.02;101911.19;5070586;28;20016;-66
2021/03/05 06:57:04;;;;;;;0.00;0.00;;;;;;;21.22;48.99;101912.72;5044847;28;20027;-67
2021/03/05 06:59:40;;;;;;;0.00;0.00;;;;;;;21.18;49.06;101909.47;5053010;28;20492;-67
2021/03/05 07:02:08;;;;;;;0.20;0.13;;;;;;;21.23;48.17;101923.50;5034870;28;20448;-67
2021/03/05 07:04:35;;;;;;;0.00;0.00;;;;;;;21.26;48.22;101928.66;5034850;28;20443;-67
2021/03/05 07:07:08;;;;;;;0.08;0.00;;;;;;;21.26;47.53;101928.66;5056594;28;20017;-67
2021/03/05 07:09:36;;;;;;;0.10;0.00;;;;;;;21.26;47.87;101931.41;5069035;28;20030;-67
2021/03/05 07:12:13;;;;;;;0.00;0.00;;;;;;;21.29;47.64;101933.81;5055600;28;20029;-67
2021/03/05 07:14:41;;;;;;;0.00;0.00;;;;;;;21.31;47.69;101937.22;5056111;28;20495;-67
2021/03/05 07:17:07;;;;;;;0.10;0.00;;;;;;;21.32;47.99;101938.94;5066749;28;20029;-67
2021/03/05 07:19:35;;;;;;;0.20;0.00;;;;;;;21.33;47.45;101939.78;5059736;28;20024;-67
2021/03/05 07:22:01;;;;;;;0.05;0.05;;;;;;;21.35;47.35;101928.72;5046436;28;20103;-67
2021/03/05 07:24:29;;;;;;;0.50;0.05;;;;;;;21.38;47.26;101953.84;5071775;28;20028;-68
2021/03/05 07:26:57;;;;;;;0.10;0.10;;;;;;;21.41;47.31;101952.66;5060189;28;20095;-67
2021/03/05 07:29:34;;;;;;;0.00;0.00;;;;;;;21.39;47.29;101938.28;5065712;28;20032;-67
2021/03/05 07:32:09;;;;;;;0.00;0.00;;;;;;;21.43;46.95;101946.00;5055537;28;20027;-67
2021/03/05 07:34:59;;;;;;;0.00;0.00;;;;;;;21.49;47.38;101949.94;5066189;28;20432;-67
2021/03/05 07:37:45;;;;;;;1.55;0.10;;;;;;;21.53;46.79;101948.63;5065449;28;20379;-63
2021/03/05 07:40:13;;;;;;;0.22;0.10;;;;;;;21.63;46.48;101947.44;5066736;28;20028;-66
2021/03/05 07:42:38;;;;;;;0.10;0.10;;;;;;;21.64;46.62;101975.66;5044234;28;20408;-63
2021/03/05 07:45:06;;;;;;;0.05;0.00;;;;;;;21.62;47.03;101977.72;5060171;28;20025;-62
2021/03/05 07:47:34;;;;;;;0.85;0.10;;;;;;;21.61;47.28;101986.94;5065531;28;20031;-64
2021/03/05 07:50:02;;;;;;;1.17;0.00;;;;;;;21.59;47.82;101961.63;5070676;28;20111;-65
2021/03/05 07:52:28;;;;;;;0.00;0.00;;;;;;;21.59;48.09;101994.47;5052950;28;20066;-64
2021/03/05 07:54:53;;;;;;;0.28;0.00;;;;;;;21.54;48.36;101980.44;5060064;28;20033;-66
2021/03/05 07:57:19;;;;;;;0.52;0.13;;;;;;;21.53;48.18;101989.66;5060536;28;20020;-66
2021/03/05 07:59:50;;;;;;;0.10;0.00;;;;;;;21.47;47.40;101995.78;5054550;28;20020;-66
2021/03/05 08:02:17;;;;;;;0.13;0.10;;;;;;;21.37;47.38;101992.31;5062907;28;20270;-66
2021/03/05 08:04:48;;;;;;;0.17;0.10;;;;;;;21.42;47.74;102003.63;5056543;28;20036;-66
2021/03/05 08:07:17;;;;;;;0.68;0.15;;;;;;;21.44;47.58;102012.50;5066833;28;20328;-67
2021/03/05 08:09:43;;;;;;;0.00;0.00;;;;;;;21.48;47.65;101997.47;5060479;28;20032;-67
2021/03/05 08:15:12;;;;;;;0.43;0.10;;;;;;;21.54;48.58;102016.84;5064294;28;20056;-66
2021/03/05 08:17:45;;;;;;;0.47;0.10;;;;;;;21.58;47.73;101992.75;4963901;28;20561;-69
2021/03/05 08:20:36;;;;;;;0.20;0.10;;;;;;;21.61;48.20;102012.41;4961753;28;20046;-69
2021/03/05 08:23:02;;;;;;;0.32;0.10;;;;;;;21.58;48.21;102020.13;4968440;28;20034;-67
2021/03/05 08:25:34;;;;;;;0.32;0.13;;;;;;;21.55;47.98;102015.84;4965228;28;20031;-66
2021/03/05 08:28:01;;;;;;;7.80;3.35;;;;;;;21.47;49.06;102012.19;4964683;28;20039;-65
2021/03/05 08:30:26;;;;;;;3.72;1.80;;;;;;;21.52;48.75;102015.31;4966954;28;20685;-68
2021/03/05 08:33:08;;;;;;;1.43;1.03;;;;;;;21.60;47.67;102012.59;4968054;28;20039;-69
2021/03/05 08:35:44;;;;;;;1.73;0.90;;;;;;;21.62;47.37;102016.88;4971004;28;20280;-68
2021/03/05 08:38:15;;;;;;;1.40;0.70;;;;;;;21.64;47.81;102030.38;4965240;28;20030;-66
2021/03/05 08:40:46;;;;;;;0.98;0.60;;;;;;;21.61;47.59;102023.38;4967183;28;20368;-65
2021/03/05 08:43:27;;;;;;;1.27;0.77;;;;;;;21.62;47.15;102021.50;4957918;28;20050;-67
2021/03/05 08:46:06;;;;;;;0.52;0.43;;;;;;;21.58;47.59;102033.78;4958294;28;20042;-68
2021/03/05 08:48:41;;;;;;;0.63;0.35;;;;;;;21.58;46.97;102042.00;4964492;28;20126;-66
2021/03/05 08:51:25;;;;;;;1.02;0.50;;;;;;;21.57;46.82;102045.75;4974018;28;20383;-66
2021/03/05 08:53:53;;;;;;;0.95;0.52;;;;;;;21.57;46.19;102043.03;4977667;28;21344;-68
2021/03/05 08:56:28;;;;;;;0.63;0.40;;;;;;;21.57;45.73;102043.03;5070455;28;20027;-68
2021/03/05 08:59:08;;;;;;;0.45;0.30;;;;;;;21.59;45.82;102046.44;5066337;28;20025;-67
2021/03/05 09:01:40;;;;;;;0.20;0.20;;;;;;;21.65;45.70;102061.34;5064908;28;20020;-68
2021/03/05 09:04:16;;;;;;;0.20;0.20;;;;;;;21.58;46.01;102052.94;5053994;28;20060;-67
2021/03/05 09:06:55;;;;;;;0.90;0.30;;;;;;;21.63;45.91;102058.78;5049539;28;20491;-67
2021/03/05 09:09:26;;;;;;;0.38;0.20;;;;;;;21.58;45.98;102058.41;5065254;28;20417;-66
2021/03/05 09:12:04;;;;;;;1.08;0.38;;;;;;;21.60;45.65;102061.84;5067705;28;20387;-65
2021/03/05 09:14:29;;;;;;;8.95;5.13;;;;;;;21.57;45.28;102064.91;5067263;28;20055;-65
2021/03/05 09:17:05;;;;;;;2.22;2.13;;;;;;;21.57;44.91;102062.19;5069585;28;20463;-64
2021/03/05 09:19:32;;;;;;;1.05;0.55;;;;;;;21.61;44.72;102060.81;5072466;28;20410;-67
2021/03/05 09:22:14;;;;;;;0.43;0.10;;;;;;;21.52;45.32;102059.94;5058972;28;20028;-65
2021/03/05 09:24:54;;;;;;;0.30;0.10;;;;;;;21.50;44.39;102066.56;5063074;28;20028;-66
2021/03/05 09:27:26;;;;;;;1.48;0.20;;;;;;;21.50;44.67;102061.09;5061508;28;20112;-65
2021/03/05 09:29:53;;;;;;;0.15;0.08;;;;;;;21.45;44.91;102072.53;5068529;28;20025;-65
2021/03/05 09:32:19;;;;;;;0.00;0.00;;;;;;;21.42;45.27;102074.75;5070320;28;20036;-65
2021/03/05 09:34:59;;;;;;;0.10;0.10;;;;;;;21.38;45.39;102076.09;5067644;28;20371;-65
2021/03/05 09:37:27;;;;;;;0.20;0.00;;;;;;;21.36;46.08;102075.41;5068732;28;20526;-65
2021/03/05 09:39:54;;;;;;;0.20;0.10;;;;;;;21.34;45.70;102083.78;5069219;28;20068;-66
2021/03/05 09:42:52;;;;;;;0.30;0.20;;;;;;;21.59;45.74;102087.50;5044566;28;20029;-63
2021/03/05 09:45:40;;;;;;;25.90;16.30;;;;;;;21.57;47.12;102095.88;4956721;28;20077;-65
2021/03/05 09:48:08;;;;;;;21.05;12.48;;;;;;;21.54;46.78;102109.03;4971941;28;20042;-67
2021/03/05 09:50:34;;;;;;;15.18;9.30;;;;;;;21.51;45.95;102095.69;4971755;28;20022;-68
2021/03/05 09:53:21;;;;;;;10.70;6.75;;;;;;;21.53;46.14;102101.84;4975804;28;20042;-67
2021/03/05 09:55:55;;;;;;;8.43;4.95;;;;;;;21.58;45.95;102099.47;4970843;28;20527;-67
2021/03/05 09:58:20;;;;;;;6.45;3.90;;;;;;;21.62;45.09;102103.59;4974263;28;20030;-67
2021/03/05 10:00:47;;;;;;;5.38;2.50;;;;;;;21.67;44.71;102098.50;4970162;28;20041;-66
2021/03/05 10:03:13;;;;;;;4.95;2.50;;;;;;;21.86;46.74;102101.00;4970411;28;20162;-66
2021/03/05 10:05:41;;;;;;;3.00;2.10;;;;;;;21.78;45.07;102103.69;4970042;28;20113;-66
2021/03/05 10:08:40;;;;;;;3.63;1.67;;;;;;;22.18;44.51;102080.25;4968604;28;20043;-63
2021/03/05 10:11:08;;;;;;;2.47;1.50;;;;;;;21.95;45.83;102088.19;4964398;28;20398;-64
2021/03/05 10:13:55;;;;;;;1.35;0.73;;;;;;;21.73;46.84;102099.72;4973856;28;20041;-66
2021/03/05 10:16:28;;;;;;;3.50;1.02;;;;;;;21.72;47.19;102104.34;4966555;28;20042;-62
2021/03/05 10:19:05;;;;;;;2.88;0.77;;;;;;;21.71;46.51;102107.25;4968806;28;20547;-63
2021/03/05 10:21:32;;;;;;;2.38;0.70;;;;;;;21.65;47.25;102095.03;5029918;28;20135;-65
2021/03/05 10:24:03;;;;;;;3.15;0.65;;;;;;;21.80;47.13;102114.47;5043096;28;20528;-62
2021/03/05 10:26:28;;;;;;;4.72;1.05;;;;;;;21.81;46.70;102107.97;5048272;28;21065;-61
2021/03/05 10:28:56;;;;;;;1.15;0.43;;;;;;;21.71;46.34;102116.31;5045052;28;20486;-61
2021/03/05 10:31:38;;;;;;;0.68;0.43;;;;;;;21.63;45.96;102110.78;5047828;28;20037;-61
2021/03/05 10:34:03;;;;;;;0.80;0.50;;;;;;;21.69;46.19;102126.56;5048739;28;20028;-61
2021/03/05 10:36:29;;;;;;;0.70;0.43;;;;;;;22.17;48.07;102125.09;5050044;28;20036;-65
2021/03/05 10:38:54;;;;;;;0.90;0.40;;;;;;;21.79;46.30;102127.28;5051727;28;20047;-64
2021/03/05 10:41:19;;;;;;;1.85;0.50;;;;;;;21.65;46.24;102136.09;5051186;28;20062;-62
2021/03/05 10:43:45;;;;;;;1.98;0.30;;;;;;;21.67;46.32;102136.81;5062731;28;20028;-60
2021/03/05 10:46:10;;;;;;;1.70;0.22;;;;;;;21.66;46.43;102136.97;5063644;28;20028;-63
2021/03/05 10:48:35;;;;;;;1.63;0.22;;;;;;;21.63;46.36;102143.63;5065807;28;20020;-62
2021/03/05 10:51:00;;;;;;;6.05;0.30;;;;;;;21.55;46.62;102129.91;5071106;28;20071;-61
2021/03/05 10:53:26;;;;;;;0.50;0.40;;;;;;;21.48;45.52;102139.75;5064231;28;20492;-62
2021/03/05 10:55:51;;;;;;;0.70;0.10;;;;;;;21.44;45.49;102135.63;5067233;28;20033;-62
2021/03/05 10:58:18;;;;;;;1.40;0.30;;;;;;;21.38;45.97;102128.94;5066967;28;20375;-61
2021/03/05 11:00:43;;;;;;;0.90;0.50;;;;;;;21.32;45.47;102130.41;5064528;28;20039;-61
2021/03/05 11:03:09;;;;;;;0.68;0.30;;;;;;;21.31;45.19;102150.59;5064850;28;20020;-62
2021/03/05 11:05:34;;;;;;;0.28;0.10;;;;;;;21.23;46.19;102125.88;5069302;28;20028;-62
2021/03/05 11:07:59;;;;;;;0.10;0.10;;;;;;;21.23;45.13;102145.03;5053155;28;20028;-62
2021/03/05 11:10:24;;;;;;;0.00;0.00;;;;;;;21.25;45.75;102134.81;5070662;28;20380;-61
2021/03/05 11:12:50;;;;;;;0.32;0.10;;;;;;;21.20;45.88;102149.97;5071219;28;20472;-62
2021/03/05 11:15:17;;;;;;;0.00;0.00;;;;;;;21.21;46.02;102146.22;5071224;28;20032;-62
2021/03/05 11:17:44;;;;;;;0.28;0.10;;;;;;;21.21;46.01;102158.00;5071438;28;20426;-61
2021/03/05 11:20:10;;;;;;;0.15;0.13;;;;;;;21.18;46.19;102158.34;5071423;28;20082;-62
2021/03/05 11:22:35;;;;;;;0.10;0.10;;;;;;;21.17;46.78;102159.34;5071252;28;20066;-62
2021/03/05 11:25:02;;;;;;;0.20;0.10;;;;;;;21.18;46.74;102161.06;5070187;28;20028;-61
2021/03/05 11:27:27;;;;;;;0.10;0.10;;;;;;;21.18;46.90;102176.63;5056389;28;20016;-62
2021/03/05 11:29:52;;;;;;;0.30;0.10;;;;;;;21.17;47.21;102163.97;5072033;28;20029;-61
2021/03/05 11:32:18;;;;;;;0.43;0.10;;;;;;;21.18;47.40;102155.59;5072373;28;20025;-61
2021/03/05 11:34:43;;;;;;;0.20;0.10;;;;;;;21.26;46.55;102169.34;5072212;28;20032;-62